createdAt,value
2023-03-17T00:04:53.775Z,1.10
2023-03-17T00:10:01.014Z,1.00
2023-03-17T00:15:10.556Z,1.10
2023-03-17T00:20:22.053Z,1.00
2023-03-17T00:25:33.552Z,1.10
2023-03-17T00:30:41.988Z,1.10
2023-03-17T00:35:48.868Z,1.10
2023-03-17T00:40:56.115Z,0.90
2023-03-17T00:46:03.655Z,1.00
2023-03-17T00:51:11.182Z,0.90
2023-03-17T00:56:21.921Z,0.80
2023-03-17T01:01:28.692Z,0.80
2023-03-17T01:06:35.753Z,0.70
2023-03-17T01:11:43.102Z,0.60
2023-03-17T01:16:50.159Z,0.50
2023-03-17T01:21:57.037Z,0.80
2023-03-17T01:27:03.892Z,0.90
2023-03-17T01:32:11.318Z,0.70
2023-03-17T01:37:18.058Z,0.70
2023-03-17T01:42:24.776Z,0.50
2023-03-17T01:47:33.102Z,0.70
2023-03-17T01:52:42.099Z,0.80
2023-03-17T01:57:53.792Z,0.60
2023-03-17T02:03:01.359Z,0.50
2023-03-17T02:08:18.293Z,0.80
2023-03-17T02:13:27.402Z,0.80
2023-03-17T02:18:34.624Z,0.70
2023-03-17T02:23:42.003Z,0.80
2023-03-17T02:28:48.985Z,0.60
2023-03-17T02:33:57.162Z,0.70
2023-03-17T02:39:04.664Z,0.60
2023-03-17T02:44:11.681Z,0.50
2023-03-17T02:49:19.402Z,0.50
2023-03-17T02:54:26.827Z,0.10
2023-03-17T02:59:33.493Z,0.40
2023-03-17T03:04:40.183Z,0.40
2023-03-17T03:09:47.532Z,0.60
2023-03-17T03:14:54.250Z,0.60
2023-03-17T03:20:00.944Z,0.60
2023-03-17T03:25:09.731Z,0.60
2023-03-17T03:30:16.674Z,0.40
2023-03-17T03:35:23.317Z,0.50
2023-03-17T03:40:30.293Z,0.60
2023-03-17T03:45:37.207Z,0.60
2023-03-17T03:50:43.925Z,0.70
2023-03-17T03:55:50.547Z,0.50
2023-03-17T04:00:57.434Z,0.30
2023-03-17T04:06:04.181Z,0.20
2023-03-17T04:11:10.919Z,0.10
2023-03-17T04:16:17.886Z,0.10
2023-03-17T04:21:24.655Z,0.10
2023-03-17T04:26:31.993Z,0.20
2023-03-17T04:31:40.195Z,0.30
2023-03-17T04:36:49.051Z,0.40
2023-03-17T04:41:55.667Z,0.30
2023-03-17T04:47:02.479Z,0.20
2023-03-17T04:52:09.335Z,0.10
2023-03-17T04:57:16.629Z,0.10
2023-03-17T05:02:23.340Z,0.20
2023-03-17T05:07:32.685Z,0.30
2023-03-17T05:12:38.766Z,0.40
2023-03-17T05:17:45.683Z,0.50
2023-03-17T05:22:52.512Z,0.20
2023-03-17T05:28:00.050Z,0.40
2023-03-17T05:33:07.560Z,0.30
2023-03-17T05:38:16.459Z,0.50
2023-03-17T05:43:24.188Z,0.40
2023-03-17T05:48:31.204Z,0.40
2023-03-17T05:53:38.593Z,0.40
2023-03-17T05:58:45.805Z,0.50
2023-03-17T06:03:53.070Z,0.60
2023-03-17T06:09:00.098Z,0.80
2023-03-17T06:14:07.993Z,0.90
2023-03-17T06:19:14.880Z,0.90
2023-03-17T06:24:22.096Z,1.20
2023-03-17T06:29:29.659Z,1.20
2023-03-17T06:34:36.648Z,1.10
2023-03-17T06:39:44.158Z,1.20
2023-03-17T06:44:52.528Z,1.10
2023-03-17T06:49:59.600Z,1.10
2023-03-17T06:55:08.091Z,1.30
2023-03-17T07:00:16.390Z,1.40
2023-03-17T07:05:23.769Z,1.40
2023-03-17T07:10:30.813Z,1.40
2023-03-17T07:15:38.945Z,1.40
2023-03-17T07:20:47.403Z,1.60
2023-03-17T07:25:54.190Z,1.60
2023-03-17T07:31:02.751Z,1.60
2023-03-17T07:36:11.053Z,1.70
2023-03-17T07:41:18.492Z,2.00
2023-03-17T07:46:26.349Z,2.30
2023-03-17T07:51:33.484Z,2.50
2023-03-17T07:56:41.537Z,2.40
2023-03-17T08:01:48.436Z,2.60
2023-03-17T08:06:55.997Z,2.60
2023-03-17T08:12:03.983Z,2.50
2023-03-17T08:17:11.178Z,2.70
2023-03-17T08:22:19.038Z,2.80
2023-03-17T08:27:26.404Z,2.80
2023-03-17T08:32:33.717Z,3.00
2023-03-17T08:37:40.529Z,3.20
2023-03-17T08:42:49.678Z,3.30
2023-03-17T08:47:56.881Z,3.70
2023-03-17T08:53:03.724Z,4.60
2023-03-17T08:58:10.891Z,5.30
2023-03-17T09:03:18.751Z,5.80
2023-03-17T09:08:26.935Z,6.10
2023-03-17T09:13:35.346Z,5.90
2023-03-17T09:18:42.661Z,6.40
2023-03-17T09:23:49.671Z,6.80
2023-03-17T09:28:56.790Z,6.90
2023-03-17T09:34:05.610Z,7.20
2023-03-17T09:39:13.122Z,7.40
2023-03-17T09:45:03.640Z,7.50
2023-03-17T09:50:35.761Z,8.30
2023-03-17T09:55:42.932Z,7.20
2023-03-17T10:00:49.638Z,7.80
2023-03-17T10:06:22.756Z,8.70
2023-03-17T10:11:46.300Z,8.70
2023-03-17T10:17:16.827Z,8.00
2023-03-17T10:22:39.709Z,7.90
2023-03-17T10:27:56.852Z,8.00
2023-03-17T10:33:07.459Z,8.80
2023-03-17T10:38:21.196Z,9.40
2023-03-17T10:43:36.046Z,9.00
2023-03-17T10:48:42.910Z,8.80
2023-03-17T10:53:51.049Z,8.90
2023-03-17T10:58:59.465Z,9.60
2023-03-17T11:04:29.927Z,9.10
2023-03-17T11:09:39.234Z,9.30
2023-03-17T11:14:46.767Z,9.70
2023-03-17T11:20:05.288Z,10.40
2023-03-17T11:25:21.398Z,10.50
2023-03-17T11:30:38.555Z,10.50
2023-03-17T11:36:10.980Z,9.80
2023-03-17T11:41:30.948Z,10.40
2023-03-17T11:46:51.036Z,10.20
2023-03-17T11:52:14.095Z,9.90
2023-03-17T11:57:43.921Z,8.90
2023-03-17T12:02:58.635Z,9.70
2023-03-17T12:08:12.774Z,9.40
2023-03-17T12:13:27.253Z,9.60
2023-03-17T12:18:51.121Z,9.90
2023-03-17T12:24:28.520Z,10.00
2023-03-17T12:30:00.697Z,10.10
2023-03-17T12:35:29.741Z,10.00
2023-03-17T12:41:14.619Z,10.10
2023-03-17T12:46:52.309Z,9.90
2023-03-17T12:52:23.882Z,10.30
2023-03-17T12:57:35.356Z,10.40
2023-03-17T13:02:42.616Z,10.60
2023-03-17T13:08:02.332Z,10.20
2023-03-17T13:13:39.534Z,11.10
2023-03-17T13:18:51.919Z,10.60
2023-03-17T13:24:06.418Z,10.20
2023-03-17T13:29:36.085Z,10.50
2023-03-17T13:34:56.496Z,10.50
2023-03-17T13:40:18.953Z,10.80
2023-03-17T13:45:44.681Z,10.90
2023-03-17T13:51:12.668Z,10.20
2023-03-17T13:56:26.259Z,10.70
2023-03-17T14:01:43.411Z,10.30
2023-03-17T14:06:53.475Z,10.60
2023-03-17T14:12:04.001Z,10.80
2023-03-17T14:17:26.864Z,10.80
2023-03-17T14:22:34.566Z,10.60
2023-03-17T14:27:42.705Z,10.20
2023-03-17T14:33:08.956Z,10.20
2023-03-17T14:38:22.909Z,10.40
2023-03-17T14:43:28.765Z,9.90
2023-03-17T14:48:42.006Z,10.20
2023-03-17T14:53:49.458Z,9.70
2023-03-17T14:58:56.689Z,9.60
2023-03-17T15:04:20.463Z,9.50
2023-03-17T15:09:37.524Z,9.90
2023-03-17T15:14:47.215Z,10.00
2023-03-17T15:19:58.450Z,9.80
2023-03-17T15:25:36.283Z,9.50
2023-03-17T15:30:50.426Z,9.50
2023-03-17T15:36:01.774Z,9.60
2023-03-17T15:41:09.300Z,9.60
2023-03-17T15:46:30.324Z,9.50
2023-03-17T15:51:37.587Z,9.30
2023-03-17T15:56:44.290Z,9.10
2023-03-17T16:01:51.916Z,8.90
2023-03-17T16:06:58.914Z,9.00
2023-03-17T16:12:07.399Z,8.60
2023-03-17T16:17:28.618Z,8.50
2023-03-17T16:22:42.641Z,8.20
2023-03-17T16:27:50.731Z,8.00
2023-03-17T16:33:01.537Z,7.60
2023-03-17T16:38:14.087Z,7.40
2023-03-17T16:43:32.943Z,7.30
2023-03-17T16:48:40.241Z,7.10
2023-03-17T16:53:47.928Z,7.00
2023-03-17T16:58:54.964Z,6.80
2023-03-17T17:04:01.625Z,6.60
2023-03-17T17:09:08.787Z,6.60
2023-03-17T17:14:16.307Z,6.60
2023-03-17T17:19:23.546Z,6.60
2023-03-17T17:24:31.481Z,6.50
2023-03-17T17:29:38.503Z,6.50
2023-03-17T17:34:45.728Z,6.30
2023-03-17T17:39:53.586Z,6.20
2023-03-17T17:45:00.640Z,6.20
2023-03-17T17:50:10.680Z,6.20
2023-03-17T17:55:18.206Z,6.10
2023-03-17T18:00:26.044Z,6.00
2023-03-17T18:05:34.394Z,6.00
2023-03-17T18:10:41.639Z,6.00
2023-03-17T18:15:48.373Z,5.90
2023-03-17T18:20:55.764Z,6.00
2023-03-17T18:26:04.403Z,5.90
2023-03-17T18:31:14.659Z,5.40
2023-03-17T18:36:22.726Z,5.40
2023-03-17T18:41:30.285Z,5.20
2023-03-17T18:46:38.661Z,5.60
2023-03-17T18:51:45.940Z,5.50
2023-03-17T18:56:52.725Z,5.60
2023-03-17T19:01:59.562Z,5.50
2023-03-17T19:07:06.603Z,5.30
2023-03-17T19:12:14.149Z,5.20
2023-03-17T19:17:21.191Z,5.00
2023-03-17T19:22:28.048Z,5.00
2023-03-17T19:27:35.066Z,4.90
2023-03-17T19:32:41.852Z,5.00
2023-03-17T19:37:48.445Z,4.80
2023-03-17T19:42:55.105Z,4.80
2023-03-17T19:48:01.884Z,4.80
2023-03-17T19:53:08.761Z,4.50
2023-03-17T19:58:15.568Z,4.50
2023-03-17T20:03:25.985Z,4.70
2023-03-17T20:08:31.276Z,4.90
2023-03-17T20:13:38.670Z,4.80
2023-03-17T20:18:45.619Z,4.70
2023-03-17T20:23:53.031Z,4.80
2023-03-17T20:29:00.019Z,4.70
2023-03-17T20:34:08.314Z,4.50
2023-03-17T20:39:16.790Z,4.60
2023-03-17T20:44:24.524Z,4.60
2023-03-17T20:49:32.080Z,4.60
2023-03-17T20:54:39.286Z,4.40
2023-03-17T20:59:46.376Z,4.40
2023-03-17T21:04:53.844Z,4.50
2023-03-17T21:10:03.131Z,4.30
2023-03-17T21:15:11.469Z,4.20
2023-03-17T21:20:19.819Z,4.30
2023-03-17T21:25:27.869Z,4.20
2023-03-17T21:30:35.233Z,3.80
2023-03-17T21:35:42.132Z,3.80
2023-03-17T21:40:49.772Z,3.70
2023-03-17T21:45:57.440Z,3.80
2023-03-17T21:51:04.598Z,3.70
2023-03-17T21:56:12.808Z,3.80
2023-03-17T22:01:24.214Z,3.70
2023-03-17T22:06:31.068Z,3.70
2023-03-17T22:11:38.141Z,3.40
2023-03-17T22:16:45.504Z,3.40
2023-03-17T22:21:53.549Z,3.30
2023-03-17T22:27:00.627Z,3.40
2023-03-17T22:32:08.687Z,3.50
2023-03-17T22:37:15.356Z,3.50
2023-03-17T22:42:22.425Z,3.30
2023-03-17T22:47:29.375Z,3.50
2023-03-17T22:52:37.513Z,3.30
2023-03-17T22:57:44.669Z,3.30
2023-03-17T23:02:52.332Z,3.20
2023-03-17T23:07:58.997Z,3.30
2023-03-17T23:13:06.972Z,3.10
2023-03-17T23:18:14.465Z,3.00
2023-03-17T23:23:22.465Z,2.80
2023-03-17T23:28:30.417Z,2.90
2023-03-17T23:33:38.084Z,3.10
2023-03-17T23:38:46.375Z,3.20
2023-03-17T23:43:53.511Z,3.10
2023-03-17T23:49:00.455Z,3.20
2023-03-17T23:54:09.790Z,3.00
2023-03-17T23:59:17.140Z,3.00
